This is the latest recevied weather packets stored in our database for station/object EB2EMZ-3. If no packets are shown the sender has not sent any weather packets the latest 1 day(s).
| Time | Temp. | Humidity | Pressure | Rain* | Wind** | Luminosity | Snow |
|---|---|---|---|---|---|---|---|
| 1836274775 | 21.67° C | 88% | 1021 hPa | 0 mm | 0 m/s | - | - |
| 1836274475 | 21.67° C | 88% | 1021.1 hPa | 0 mm | 0 m/s | - | - |
| 1836274325 | 21.67° C | 88% | 1021.1 hPa | 0 mm | 0 m/s | - | - |
| 1836274175 | 21.67° C | 88% | 1021.1 hPa | 0 mm | 0 m/s | - | - |
| 1836273875 | 21.67° C | 88% | 1021.1 hPa | 0 mm | 0 m/s | - | - |
| 1778035172 | 13.89° C | 67% | 1010.5 hPa | 0 mm | 1.34 m/s, 112° | - | - |
| 1778034872 | 13.89° C | 67% | 1010.4 hPa | 0 mm | 2.24 m/s, 22° | - | - |
| 1778034572 | 13.89° C | 67% | 1010.5 hPa | 0 mm | 1.34 m/s, 22° | - | - |
| 1778034272 | 13.89° C | 67% | 1010.5 hPa | 0 mm | 0 m/s | - | - |
| 1778033972 | 13.89° C | 67% | 1010.5 hPa | 0 mm | 0 m/s | - | - |
| 1778033672 | 13.89° C | 67% | 1010.6 hPa | 0 mm | 2.24 m/s, 337° | - | - |
| 1778033372 | 13.89° C | 67% | 1010.6 hPa | 0 mm | 1.34 m/s, 0° | - | - |
| 1778032772 | 13.89° C | 67% | 1010.4 hPa | 0 mm | 5.36 m/s, 337° | - | - |
| 1778032472 | 13.89° C | 67% | 1010.4 hPa | 0 mm | 2.68 m/s, 337° | - | - |
| 1778032172 | 13.89° C | 67% | 1010.1 hPa | 0 mm | 2.68 m/s, 337° | - | - |
| 1778031872 | 13.89° C | 67% | 1010.4 hPa | 0 mm | 0.89 m/s, 0° | - | - |
| 1778031572 | 13.89° C | 67% | 1010.4 hPa | 0 mm | 0 m/s | - | - |
| 1778031272 | 13.89° C | 67% | 1010.4 hPa | 0 mm | 1.34 m/s, 337° | - | - |
| 1778030972 | 13.89° C | 67% | 1010.5 hPa | 0 mm | 1.79 m/s, 225° | - | - |
| 1778030673 | 13.89° C | 67% | 1010.5 hPa | 0 mm | 0.89 m/s, 247° | - | - |
| 1778030372 | 14.44° C | 67% | 1010.6 hPa | 0 mm | 0 m/s | - | - |
| 1778030072 | 14.44° C | 67% | 1010.6 hPa | 0 mm | 0 m/s | - | - |
| 1778029773 | 14.44° C | 67% | 1010.5 hPa | 0 mm | 1.34 m/s, 337° | - | - |
| 1778029473 | 14.44° C | 67% | 1010.6 hPa | 0 mm | 0 m/s | - | - |
| 1778029173 | 14.44° C | 67% | 1010.6 hPa | 0 mm | 1.34 m/s, 22° | - | - |
* Rain latest hour (hover to see other rain measurements)
** Current wind speed in m/s (hover to see current wind gust speed)